sensor_id;sensor_type;location;lat;lon;timestamp;temperature;humidity
18934;DHT22;9599;53.706;10.384;2022-09-03T00:01:24;15.80;99.90
18934;DHT22;9599;53.706;10.384;2022-09-03T00:03:58;15.70;99.90
18934;DHT22;9599;53.706;10.384;2022-09-03T00:06:31;15.80;99.90
18934;DHT22;9599;53.706;10.384;2022-09-03T00:09:06;15.80;99.90
18934;DHT22;9599;53.706;10.384;2022-09-03T00:11:40;15.80;99.90
18934;DHT22;9599;53.706;10.384;2022-09-03T00:14:15;15.80;99.90
18934;DHT22;9599;53.706;10.384;2022-09-03T00:16:50;15.90;99.90
18934;DHT22;9599;53.706;10.384;2022-09-03T00:19:24;15.90;99.90
18934;DHT22;9599;53.706;10.384;2022-09-03T00:21:57;15.90;99.90
18934;DHT22;9599;53.706;10.384;2022-09-03T00:24:29;15.90;99.90
18934;DHT22;9599;53.706;10.384;2022-09-03T00:27:04;16.00;99.90
18934;DHT22;9599;53.706;10.384;2022-09-03T00:29:36;16.00;99.90
18934;DHT22;9599;53.706;10.384;2022-09-03T00:32:13;16.10;99.90
18934;DHT22;9599;53.706;10.384;2022-09-03T00:34:48;16.10;99.90
18934;DHT22;9599;53.706;10.384;2022-09-03T00:37:19;16.10;99.90
18934;DHT22;9599;53.706;10.384;2022-09-03T00:39:47;16.10;99.90
18934;DHT22;9599;53.706;10.384;2022-09-03T00:42:33;16.20;99.90
18934;DHT22;9599;53.706;10.384;2022-09-03T00:45:13;16.20;99.90
18934;DHT22;9599;53.706;10.384;2022-09-03T00:47:55;16.20;99.90
18934;DHT22;9599;53.706;10.384;2022-09-03T00:50:37;16.20;99.90
18934;DHT22;9599;53.706;10.384;2022-09-03T00:53:12;16.30;99.90
18934;DHT22;9599;53.706;10.384;2022-09-03T00:55:48;16.30;99.90
18934;DHT22;9599;53.706;10.384;2022-09-03T00:58:44;16.20;99.90
18934;DHT22;9599;53.706;10.384;2022-09-03T01:01:22;16.20;99.90
18934;DHT22;9599;53.706;10.384;2022-09-03T01:04:03;16.30;99.90
18934;DHT22;9599;53.706;10.384;2022-09-03T01:06:40;16.20;99.90
18934;DHT22;9599;53.706;10.384;2022-09-03T01:09:28;16.30;99.90
18934;DHT22;9599;53.706;10.384;2022-09-03T01:12:02;16.30;99.90
18934;DHT22;9599;53.706;10.384;2022-09-03T01:14:47;16.30;99.90
18934;DHT22;9599;53.706;10.384;2022-09-03T01:17:26;16.20;99.90
18934;DHT22;9599;53.706;10.384;2022-09-03T01:20:15;16.20;99.90
18934;DHT22;9599;53.706;10.384;2022-09-03T01:25:53;16.20;99.90
18934;DHT22;9599;53.706;10.384;2022-09-03T01:28:41;16.20;99.90
18934;DHT22;9599;53.706;10.384;2022-09-03T01:31:19;16.20;99.90
18934;DHT22;9599;53.706;10.384;2022-09-03T01:33:57;16.20;99.90
18934;DHT22;9599;53.706;10.384;2022-09-03T01:36:36;16.20;99.90
18934;DHT22;9599;53.706;10.384;2022-09-03T01:39:12;16.20;99.90
18934;DHT22;9599;53.706;10.384;2022-09-03T01:41:50;16.30;99.90
18934;DHT22;9599;53.706;10.384;2022-09-03T01:45:08;16.30;99.90
18934;DHT22;9599;53.706;10.384;2022-09-03T01:47:51;16.30;99.90
18934;DHT22;9599;53.706;10.384;2022-09-03T01:50:30;16.30;99.90
18934;DHT22;9599;53.706;10.384;2022-09-03T01:53:06;16.30;99.90
18934;DHT22;9599;53.706;10.384;2022-09-03T01:55:45;16.30;99.90
18934;DHT22;9599;53.706;10.384;2022-09-03T01:58:20;16.30;99.90
18934;DHT22;9599;53.706;10.384;2022-09-03T02:00:56;16.30;99.90
18934;DHT22;9599;53.706;10.384;2022-09-03T02:03:33;16.30;99.90
18934;DHT22;9599;53.706;10.384;2022-09-03T02:06:07;16.30;99.90
18934;DHT22;9599;53.706;10.384;2022-09-03T02:08:35;16.30;99.90
18934;DHT22;9599;53.706;10.384;2022-09-03T02:11:04;16.30;99.90
18934;DHT22;9599;53.706;10.384;2022-09-03T02:13:37;16.20;99.90
18934;DHT22;9599;53.706;10.384;2022-09-03T02:16:11;16.20;99.90
18934;DHT22;9599;53.706;10.384;2022-09-03T02:18:42;16.30;99.90
18934;DHT22;9599;53.706;10.384;2022-09-03T02:21:14;16.30;99.90
18934;DHT22;9599;53.706;10.384;2022-09-03T02:23:43;16.20;99.90
18934;DHT22;9599;53.706;10.384;2022-09-03T02:26:12;16.30;99.90
18934;DHT22;9599;53.706;10.384;2022-09-03T02:28:41;16.30;99.90
18934;DHT22;9599;53.706;10.384;2022-09-03T02:31:10;16.20;99.90
18934;DHT22;9599;53.706;10.384;2022-09-03T02:33:40;16.20;99.90
18934;DHT22;9599;53.706;10.384;2022-09-03T02:36:12;16.20;99.90
18934;DHT22;9599;53.706;10.384;2022-09-03T02:38:42;16.20;99.90
18934;DHT22;9599;53.706;10.384;2022-09-03T02:41:11;16.20;99.90
18934;DHT22;9599;53.706;10.384;2022-09-03T02:43:43;16.10;99.90
18934;DHT22;9599;53.706;10.384;2022-09-03T02:46:19;16.10;99.90
18934;DHT22;9599;53.706;10.384;2022-09-03T02:48:47;16.10;99.90
18934;DHT22;9599;53.706;10.384;2022-09-03T02:51:15;16.00;99.90
18934;DHT22;9599;53.706;10.384;2022-09-03T02:53:43;16.00;99.90
18934;DHT22;9599;53.706;10.384;2022-09-03T02:56:12;16.00;99.90
18934;DHT22;9599;53.706;10.384;2022-09-03T02:58:40;15.90;99.90
18934;DHT22;9599;53.706;10.384;2022-09-03T03:01:07;15.90;99.90
18934;DHT22;9599;53.706;10.384;2022-09-03T03:03:39;15.90;99.90
18934;DHT22;9599;53.706;10.384;2022-09-03T03:06:07;15.90;99.90
18934;DHT22;9599;53.706;10.384;2022-09-03T03:08:35;15.90;99.90
18934;DHT22;9599;53.706;10.384;2022-09-03T03:11:03;15.80;99.90
18934;DHT22;9599;53.706;10.384;2022-09-03T03:13:32;15.80;99.90
18934;DHT22;9599;53.706;10.384;2022-09-03T03:16:01;15.70;99.90
18934;DHT22;9599;53.706;10.384;2022-09-03T03:18:31;15.70;99.90
18934;DHT22;9599;53.706;10.384;2022-09-03T03:21:05;15.70;99.90
18934;DHT22;9599;53.706;10.384;2022-09-03T03:23:34;15.60;99.90
18934;DHT22;9599;53.706;10.384;2022-09-03T03:26:03;15.60;99.90
18934;DHT22;9599;53.706;10.384;2022-09-03T03:28:31;15.60;99.90
18934;DHT22;9599;53.706;10.384;2022-09-03T03:31:04;15.60;99.90
18934;DHT22;9599;53.706;10.384;2022-09-03T03:33:33;15.50;99.90
18934;DHT22;9599;53.706;10.384;2022-09-03T03:36:04;15.50;99.90
18934;DHT22;9599;53.706;10.384;2022-09-03T03:38:33;15.50;99.90
18934;DHT22;9599;53.706;10.384;2022-09-03T03:41:06;15.40;99.90
18934;DHT22;9599;53.706;10.384;2022-09-03T03:43:34;15.40;99.90
18934;DHT22;9599;53.706;10.384;2022-09-03T03:46:02;15.40;99.90
18934;DHT22;9599;53.706;10.384;2022-09-03T03:48:31;15.40;99.90
18934;DHT22;9599;53.706;10.384;2022-09-03T03:51:00;15.40;99.90
18934;DHT22;9599;53.706;10.384;2022-09-03T03:53:31;15.30;99.90
18934;DHT22;9599;53.706;10.384;2022-09-03T03:56:00;15.30;99.90
18934;DHT22;9599;53.706;10.384;2022-09-03T03:58:30;15.30;99.90
18934;DHT22;9599;53.706;10.384;2022-09-03T04:01:04;15.30;99.90
18934;DHT22;9599;53.706;10.384;2022-09-03T04:03:32;15.20;99.90
18934;DHT22;9599;53.706;10.384;2022-09-03T04:06:00;15.20;99.90
18934;DHT22;9599;53.706;10.384;2022-09-03T04:08:28;15.20;99.90
18934;DHT22;9599;53.706;10.384;2022-09-03T04:11:00;15.20;99.90
18934;DHT22;9599;53.706;10.384;2022-09-03T04:13:29;15.10;99.90
18934;DHT22;9599;53.706;10.384;2022-09-03T04:16:01;15.10;99.90
18934;DHT22;9599;53.706;10.384;2022-09-03T04:18:30;15.10;99.90
18934;DHT22;9599;53.706;10.384;2022-09-03T04:20:59;15.10;99.90
18934;DHT22;9599;53.706;10.384;2022-09-03T04:23:30;15.10;99.90
18934;DHT22;9599;53.706;10.384;2022-09-03T04:25:59;15.10;99.90
18934;DHT22;9599;53.706;10.384;2022-09-03T04:28:28;15.10;99.90
18934;DHT22;9599;53.706;10.384;2022-09-03T04:31:00;15.00;99.90
18934;DHT22;9599;53.706;10.384;2022-09-03T04:33:29;15.10;99.90
18934;DHT22;9599;53.706;10.384;2022-09-03T04:36:05;15.10;99.90
18934;DHT22;9599;53.706;10.384;2022-09-03T04:38:34;15.10;99.90
18934;DHT22;9599;53.706;10.384;2022-09-03T04:41:04;15.10;99.90
18934;DHT22;9599;53.706;10.384;2022-09-03T04:43:33;15.10;99.90
18934;DHT22;9599;53.706;10.384;2022-09-03T04:46:02;15.00;99.90
18934;DHT22;9599;53.706;10.384;2022-09-03T04:48:31;15.00;99.90
18934;DHT22;9599;53.706;10.384;2022-09-03T04:51:01;15.00;99.90
18934;DHT22;9599;53.706;10.384;2022-09-03T04:53:32;14.90;99.90
18934;DHT22;9599;53.706;10.384;2022-09-03T04:56:01;14.90;99.90
18934;DHT22;9599;53.706;10.384;2022-09-03T04:58:30;14.90;99.90
18934;DHT22;9599;53.706;10.384;2022-09-03T05:01:06;14.90;99.90
18934;DHT22;9599;53.706;10.384;2022-09-03T05:03:34;14.90;99.90
18934;DHT22;9599;53.706;10.384;2022-09-03T05:06:04;14.90;99.90
18934;DHT22;9599;53.706;10.384;2022-09-03T05:08:33;14.90;99.90
18934;DHT22;9599;53.706;10.384;2022-09-03T05:11:02;14.90;99.90
18934;DHT22;9599;53.706;10.384;2022-09-03T05:13:32;14.90;99.90
18934;DHT22;9599;53.706;10.384;2022-09-03T05:16:02;14.90;99.90
18934;DHT22;9599;53.706;10.384;2022-09-03T05:18:30;14.90;99.90
18934;DHT22;9599;53.706;10.384;2022-09-03T05:20:58;14.80;99.90
18934;DHT22;9599;53.706;10.384;2022-09-03T05:23:28;14.90;99.90
18934;DHT22;9599;53.706;10.384;2022-09-03T05:26:04;14.80;99.90
18934;DHT22;9599;53.706;10.384;2022-09-03T05:28:39;14.80;99.90
18934;DHT22;9599;53.706;10.384;2022-09-03T05:31:08;14.80;99.90
18934;DHT22;9599;53.706;10.384;2022-09-03T05:33:38;14.80;99.90
18934;DHT22;9599;53.706;10.384;2022-09-03T05:36:08;14.80;99.90
18934;DHT22;9599;53.706;10.384;2022-09-03T05:38:37;14.80;99.90
18934;DHT22;9599;53.706;10.384;2022-09-03T05:41:07;14.70;99.90
18934;DHT22;9599;53.706;10.384;2022-09-03T05:43:36;14.80;99.90
18934;DHT22;9599;53.706;10.384;2022-09-03T05:46:06;14.80;99.90
18934;DHT22;9599;53.706;10.384;2022-09-03T05:48:36;14.90;99.90
18934;DHT22;9599;53.706;10.384;2022-09-03T05:51:06;14.90;99.90
18934;DHT22;9599;53.706;10.384;2022-09-03T05:53:35;15.00;99.90
18934;DHT22;9599;53.706;10.384;2022-09-03T05:56:06;15.10;99.90
18934;DHT22;9599;53.706;10.384;2022-09-03T05:58:37;15.20;99.90
18934;DHT22;9599;53.706;10.384;2022-09-03T06:01:12;15.30;99.90
18934;DHT22;9599;53.706;10.384;2022-09-03T06:03:41;15.40;99.90
18934;DHT22;9599;53.706;10.384;2022-09-03T06:06:11;15.50;99.90
18934;DHT22;9599;53.706;10.384;2022-09-03T06:08:40;15.70;99.90
18934;DHT22;9599;53.706;10.384;2022-09-03T06:11:10;15.70;99.90
18934;DHT22;9599;53.706;10.384;2022-09-03T06:13:38;15.90;99.90
18934;DHT22;9599;53.706;10.384;2022-09-03T06:16:06;16.00;99.90
18934;DHT22;9599;53.706;10.384;2022-09-03T06:18:35;16.10;99.90
18934;DHT22;9599;53.706;10.384;2022-09-03T06:21:05;16.30;99.90
18934;DHT22;9599;53.706;10.384;2022-09-03T06:23:34;16.60;99.90
18934;DHT22;9599;53.706;10.384;2022-09-03T06:26:06;16.60;99.90
18934;DHT22;9599;53.706;10.384;2022-09-03T06:28:37;16.60;99.90
18934;DHT22;9599;53.706;10.384;2022-09-03T06:31:07;16.70;99.90
18934;DHT22;9599;53.706;10.384;2022-09-03T06:33:38;16.70;99.90
18934;DHT22;9599;53.706;10.384;2022-09-03T06:36:09;16.80;99.90
18934;DHT22;9599;53.706;10.384;2022-09-03T06:38:39;16.90;99.90
18934;DHT22;9599;53.706;10.384;2022-09-03T06:41:08;17.00;99.90
18934;DHT22;9599;53.706;10.384;2022-09-03T06:43:38;17.10;99.90
18934;DHT22;9599;53.706;10.384;2022-09-03T06:46:07;17.20;99.90
18934;DHT22;9599;53.706;10.384;2022-09-03T06:48:38;17.40;99.90
18934;DHT22;9599;53.706;10.384;2022-09-03T06:51:08;17.50;99.90
18934;DHT22;9599;53.706;10.384;2022-09-03T06:53:38;17.70;99.90
18934;DHT22;9599;53.706;10.384;2022-09-03T06:56:08;17.80;99.90
18934;DHT22;9599;53.706;10.384;2022-09-03T06:58:38;17.90;99.90
18934;DHT22;9599;53.706;10.384;2022-09-03T07:01:11;18.00;99.90
18934;DHT22;9599;53.706;10.384;2022-09-03T07:03:42;18.20;99.90
18934;DHT22;9599;53.706;10.384;2022-09-03T07:06:12;18.20;99.90
18934;DHT22;9599;53.706;10.384;2022-09-03T07:08:41;18.20;99.90
18934;DHT22;9599;53.706;10.384;2022-09-03T07:11:10;18.20;99.90
18934;DHT22;9599;53.706;10.384;2022-09-03T07:13:40;18.10;99.90
18934;DHT22;9599;53.706;10.384;2022-09-03T07:16:10;18.10;99.90
18934;DHT22;9599;53.706;10.384;2022-09-03T07:18:40;18.10;99.90
18934;DHT22;9599;53.706;10.384;2022-09-03T07:21:11;18.10;99.90
18934;DHT22;9599;53.706;10.384;2022-09-03T07:23:41;18.20;99.90
18934;DHT22;9599;53.706;10.384;2022-09-03T07:26:10;18.20;99.90
18934;DHT22;9599;53.706;10.384;2022-09-03T07:28:40;18.40;99.90
18934;DHT22;9599;53.706;10.384;2022-09-03T07:31:10;18.50;99.90
18934;DHT22;9599;53.706;10.384;2022-09-03T07:33:40;18.60;99.90
18934;DHT22;9599;53.706;10.384;2022-09-03T07:36:10;18.80;99.90
18934;DHT22;9599;53.706;10.384;2022-09-03T07:38:41;19.00;99.90
18934;DHT22;9599;53.706;10.384;2022-09-03T07:41:10;19.30;99.90
18934;DHT22;9599;53.706;10.384;2022-09-03T07:43:53;19.50;99.90
18934;DHT22;9599;53.706;10.384;2022-09-03T07:46:22;19.80;99.90
18934;DHT22;9599;53.706;10.384;2022-09-03T07:48:54;19.90;99.90
18934;DHT22;9599;53.706;10.384;2022-09-03T07:51:23;20.00;99.90
18934;DHT22;9599;53.706;10.384;2022-09-03T07:53:53;20.30;99.90
18934;DHT22;9599;53.706;10.384;2022-09-03T07:56:22;20.50;99.90
18934;DHT22;9599;53.706;10.384;2022-09-03T07:58:50;20.60;99.90
18934;DHT22;9599;53.706;10.384;2022-09-03T08:01:20;20.90;99.90
18934;DHT22;9599;53.706;10.384;2022-09-03T08:03:49;21.00;99.90
18934;DHT22;9599;53.706;10.384;2022-09-03T08:06:21;21.10;99.90
18934;DHT22;9599;53.706;10.384;2022-09-03T08:08:54;21.20;99.90
18934;DHT22;9599;53.706;10.384;2022-09-03T08:11:31;21.20;99.90
18934;DHT22;9599;53.706;10.384;2022-09-03T08:14:01;21.40;99.90
18934;DHT22;9599;53.706;10.384;2022-09-03T08:16:33;21.60;99.90
18934;DHT22;9599;53.706;10.384;2022-09-03T08:19:02;21.70;99.90
18934;DHT22;9599;53.706;10.384;2022-09-03T08:21:32;21.80;99.90
18934;DHT22;9599;53.706;10.384;2022-09-03T08:24:00;21.80;99.70
18934;DHT22;9599;53.706;10.384;2022-09-03T08:26:30;21.90;99.90
18934;DHT22;9599;53.706;10.384;2022-09-03T08:28:59;21.90;99.10
18934;DHT22;9599;53.706;10.384;2022-09-03T08:31:27;22.00;99.60
18934;DHT22;9599;53.706;10.384;2022-09-03T08:33:57;22.20;99.90
18934;DHT22;9599;53.706;10.384;2022-09-03T08:36:26;22.20;98.70
18934;DHT22;9599;53.706;10.384;2022-09-03T08:38:57;22.30;98.60
18934;DHT22;9599;53.706;10.384;2022-09-03T08:41:42;22.40;97.70
18934;DHT22;9599;53.706;10.384;2022-09-03T08:44:22;22.40;97.60
18934;DHT22;9599;53.706;10.384;2022-09-03T08:46:56;22.60;97.00
18934;DHT22;9599;53.706;10.384;2022-09-03T08:49:28;22.60;96.90
18934;DHT22;9599;53.706;10.384;2022-09-03T08:52:01;22.60;97.30
18934;DHT22;9599;53.706;10.384;2022-09-03T08:54:32;22.70;96.30
18934;DHT22;9599;53.706;10.384;2022-09-03T08:57:01;22.80;96.60
18934;DHT22;9599;53.706;10.384;2022-09-03T08:59:30;22.90;97.00
18934;DHT22;9599;53.706;10.384;2022-09-03T09:02:05;22.80;96.40
18934;DHT22;9599;53.706;10.384;2022-09-03T09:04:47;22.50;95.50
18934;DHT22;9599;53.706;10.384;2022-09-03T09:07:22;22.50;96.30
18934;DHT22;9599;53.706;10.384;2022-09-03T09:09:59;22.70;96.60
18934;DHT22;9599;53.706;10.384;2022-09-03T09:12:36;22.90;97.30
18934;DHT22;9599;53.706;10.384;2022-09-03T09:15:18;23.10;95.90
18934;DHT22;9599;53.706;10.384;2022-09-03T09:18:10;23.30;95.20
18934;DHT22;9599;53.706;10.384;2022-09-03T09:20:45;23.30;94.40
18934;DHT22;9599;53.706;10.384;2022-09-03T09:23:21;23.40;95.40
18934;DHT22;9599;53.706;10.384;2022-09-03T09:25:55;23.80;95.50
18934;DHT22;9599;53.706;10.384;2022-09-03T09:28:26;23.90;94.30
18934;DHT22;9599;53.706;10.384;2022-09-03T09:30:56;24.00;93.90
18934;DHT22;9599;53.706;10.384;2022-09-03T09:33:25;24.10;94.00
18934;DHT22;9599;53.706;10.384;2022-09-03T09:35:55;23.90;92.60
18934;DHT22;9599;53.706;10.384;2022-09-03T09:38:27;23.80;92.90
18934;DHT22;9599;53.706;10.384;2022-09-03T09:41:07;23.60;92.20
18934;DHT22;9599;53.706;10.384;2022-09-03T09:43:36;23.60;92.70
18934;DHT22;9599;53.706;10.384;2022-09-03T09:46:11;23.80;93.20
18934;DHT22;9599;53.706;10.384;2022-09-03T09:48:47;23.80;92.40
18934;DHT22;9599;53.706;10.384;2022-09-03T09:51:18;23.90;92.10
18934;DHT22;9599;53.706;10.384;2022-09-03T09:53:47;24.20;92.10
18934;DHT22;9599;53.706;10.384;2022-09-03T09:56:24;24.10;91.50
18934;DHT22;9599;53.706;10.384;2022-09-03T09:59:01;24.00;90.30
18934;DHT22;9599;53.706;10.384;2022-09-03T10:01:29;23.80;87.30
18934;DHT22;9599;53.706;10.384;2022-09-03T10:03:58;23.60;88.30
18934;DHT22;9599;53.706;10.384;2022-09-03T10:06:29;23.30;87.30
18934;DHT22;9599;53.706;10.384;2022-09-03T10:09:16;23.10;87.10
18934;DHT22;9599;53.706;10.384;2022-09-03T10:11:49;22.90;88.10
18934;DHT22;9599;53.706;10.384;2022-09-03T10:14:23;22.90;85.70
18934;DHT22;9599;53.706;10.384;2022-09-03T10:16:57;22.70;87.80
18934;DHT22;9599;53.706;10.384;2022-09-03T10:19:34;22.60;86.90
18934;DHT22;9599;53.706;10.384;2022-09-03T10:22:11;22.50;87.50
18934;DHT22;9599;53.706;10.384;2022-09-03T10:24:51;22.60;90.00
18934;DHT22;9599;53.706;10.384;2022-09-03T10:27:24;22.80;86.70
18934;DHT22;9599;53.706;10.384;2022-09-03T10:29:52;22.90;88.90
18934;DHT22;9599;53.706;10.384;2022-09-03T10:32:33;23.10;89.30
18934;DHT22;9599;53.706;10.384;2022-09-03T10:35:15;23.50;88.20
18934;DHT22;9599;53.706;10.384;2022-09-03T10:37:50;23.60;86.40
18934;DHT22;9599;53.706;10.384;2022-09-03T10:40:28;23.90;85.70
18934;DHT22;9599;53.706;10.384;2022-09-03T10:43:13;24.10;84.00
18934;DHT22;9599;53.706;10.384;2022-09-03T10:45:51;24.40;81.30
18934;DHT22;9599;53.706;10.384;2022-09-03T10:48:45;24.50;84.00
18934;DHT22;9599;53.706;10.384;2022-09-03T10:51:18;24.70;83.60
18934;DHT22;9599;53.706;10.384;2022-09-03T10:53:59;24.90;83.00
18934;DHT22;9599;53.706;10.384;2022-09-03T10:56:40;25.10;81.50
18934;DHT22;9599;53.706;10.384;2022-09-03T11:02:23;24.80;76.80
18934;DHT22;9599;53.706;10.384;2022-09-03T11:04:58;24.50;76.80
18934;DHT22;9599;53.706;10.384;2022-09-03T11:07:36;24.00;77.70
18934;DHT22;9599;53.706;10.384;2022-09-03T11:10:14;23.90;78.90
18934;DHT22;9599;53.706;10.384;2022-09-03T11:12:45;23.90;77.80
18934;DHT22;9599;53.706;10.384;2022-09-03T11:15:25;23.70;77.70
18934;DHT22;9599;53.706;10.384;2022-09-03T11:17:57;23.60;78.30
18934;DHT22;9599;53.706;10.384;2022-09-03T11:20:26;23.60;79.20
18934;DHT22;9599;53.706;10.384;2022-09-03T11:22:56;23.90;79.30
18934;DHT22;9599;53.706;10.384;2022-09-03T11:25:30;23.90;76.80
18934;DHT22;9599;53.706;10.384;2022-09-03T11:28:08;23.70;76.60
18934;DHT22;9599;53.706;10.384;2022-09-03T11:31:00;23.60;77.10
18934;DHT22;9599;53.706;10.384;2022-09-03T11:33:33;23.50;78.40
18934;DHT22;9599;53.706;10.384;2022-09-03T11:36:05;23.30;77.80
18934;DHT22;9599;53.706;10.384;2022-09-03T11:38:33;23.10;77.70
18934;DHT22;9599;53.706;10.384;2022-09-03T11:41:11;23.00;77.20
18934;DHT22;9599;53.706;10.384;2022-09-03T11:43:40;22.80;76.50
18934;DHT22;9599;53.706;10.384;2022-09-03T11:46:12;22.70;77.10
18934;DHT22;9599;53.706;10.384;2022-09-03T11:48:42;22.50;76.90
18934;DHT22;9599;53.706;10.384;2022-09-03T11:51:29;22.50;78.00
18934;DHT22;9599;53.706;10.384;2022-09-03T11:54:00;22.50;78.30
18934;DHT22;9599;53.706;10.384;2022-09-03T11:56:29;22.50;79.60
18934;DHT22;9599;53.706;10.384;2022-09-03T11:59:01;22.60;78.70
18934;DHT22;9599;53.706;10.384;2022-09-03T12:01:31;22.70;79.70
18934;DHT22;9599;53.706;10.384;2022-09-03T12:04:02;23.00;78.10
18934;DHT22;9599;53.706;10.384;2022-09-03T12:06:48;23.20;78.80
18934;DHT22;9599;53.706;10.384;2022-09-03T12:09:48;23.50;78.30
18934;DHT22;9599;53.706;10.384;2022-09-03T12:12:37;23.60;76.60
18934;DHT22;9599;53.706;10.384;2022-09-03T12:15:13;23.50;75.20
18934;DHT22;9599;53.706;10.384;2022-09-03T12:17:51;23.20;76.40
18934;DHT22;9599;53.706;10.384;2022-09-03T12:20:39;23.00;76.90
18934;DHT22;9599;53.706;10.384;2022-09-03T12:23:09;22.80;75.90
18934;DHT22;9599;53.706;10.384;2022-09-03T12:25:42;22.80;75.90
18934;DHT22;9599;53.706;10.384;2022-09-03T12:28:15;22.80;74.40
18934;DHT22;9599;53.706;10.384;2022-09-03T12:30:45;22.70;75.50
18934;DHT22;9599;53.706;10.384;2022-09-03T12:33:16;22.60;77.20
18934;DHT22;9599;53.706;10.384;2022-09-03T12:35:55;22.60;75.20
18934;DHT22;9599;53.706;10.384;2022-09-03T12:38:25;22.50;74.50
18934;DHT22;9599;53.706;10.384;2022-09-03T12:40:55;22.60;76.50
18934;DHT22;9599;53.706;10.384;2022-09-03T12:43:50;22.70;75.00
18934;DHT22;9599;53.706;10.384;2022-09-03T12:46:22;22.90;75.20
18934;DHT22;9599;53.706;10.384;2022-09-03T12:49:02;23.00;74.40
18934;DHT22;9599;53.706;10.384;2022-09-03T12:51:58;23.10;73.30
18934;DHT22;9599;53.706;10.384;2022-09-03T12:54:33;23.10;72.30
18934;DHT22;9599;53.706;10.384;2022-09-03T12:57:01;23.10;74.30
18934;DHT22;9599;53.706;10.384;2022-09-03T12:59:33;23.10;73.30
18934;DHT22;9599;53.706;10.384;2022-09-03T13:02:10;23.20;73.50
18934;DHT22;9599;53.706;10.384;2022-09-03T13:04:41;23.30;72.90
18934;DHT22;9599;53.706;10.384;2022-09-03T13:07:13;23.40;72.90
18934;DHT22;9599;53.706;10.384;2022-09-03T13:09:42;23.40;71.90
18934;DHT22;9599;53.706;10.384;2022-09-03T13:12:20;23.50;72.30
18934;DHT22;9599;53.706;10.384;2022-09-03T13:14:49;23.50;72.20
18934;DHT22;9599;53.706;10.384;2022-09-03T13:17:26;23.60;70.90
18934;DHT22;9599;53.706;10.384;2022-09-03T13:20:14;23.60;71.00
18934;DHT22;9599;53.706;10.384;2022-09-03T13:22:55;23.60;70.40
18934;DHT22;9599;53.706;10.384;2022-09-03T13:25:31;23.40;70.50
18934;DHT22;9599;53.706;10.384;2022-09-03T13:28:06;23.20;69.50
18934;DHT22;9599;53.706;10.384;2022-09-03T13:30:47;23.00;70.90
18934;DHT22;9599;53.706;10.384;2022-09-03T13:33:21;23.00;70.50
18934;DHT22;9599;53.706;10.384;2022-09-03T13:36:02;22.90;71.10
18934;DHT22;9599;53.706;10.384;2022-09-03T13:38:36;22.80;70.90
18934;DHT22;9599;53.706;10.384;2022-09-03T13:41:10;22.70;71.10
18934;DHT22;9599;53.706;10.384;2022-09-03T13:43:42;22.70;70.10
18934;DHT22;9599;53.706;10.384;2022-09-03T13:46:15;22.60;70.70
18934;DHT22;9599;53.706;10.384;2022-09-03T13:48:45;22.50;69.90
18934;DHT22;9599;53.706;10.384;2022-09-03T13:51:41;22.40;72.30
18934;DHT22;9599;53.706;10.384;2022-09-03T13:54:19;22.40;72.10
18934;DHT22;9599;53.706;10.384;2022-09-03T13:57:25;22.50;72.70
18934;DHT22;9599;53.706;10.384;2022-09-03T13:59:58;22.70;70.70
18934;DHT22;9599;53.706;10.384;2022-09-03T14:02:45;22.80;70.40
18934;DHT22;9599;53.706;10.384;2022-09-03T14:05:24;23.00;70.20
18934;DHT22;9599;53.706;10.384;2022-09-03T14:08:04;23.10;70.20
18934;DHT22;9599;53.706;10.384;2022-09-03T14:10:50;23.10;70.20
18934;DHT22;9599;53.706;10.384;2022-09-03T14:13:27;23.20;70.40
18934;DHT22;9599;53.706;10.384;2022-09-03T14:16:05;23.30;70.20
18934;DHT22;9599;53.706;10.384;2022-09-03T14:18:43;23.30;69.00
18934;DHT22;9599;53.706;10.384;2022-09-03T14:21:16;23.30;70.50
18934;DHT22;9599;53.706;10.384;2022-09-03T14:23:51;23.20;69.50
18934;DHT22;9599;53.706;10.384;2022-09-03T14:26:25;23.30;70.20
18934;DHT22;9599;53.706;10.384;2022-09-03T14:29:13;23.30;69.90
18934;DHT22;9599;53.706;10.384;2022-09-03T14:32:07;23.30;69.60
18934;DHT22;9599;53.706;10.384;2022-09-03T14:34:49;23.30;68.20
18934;DHT22;9599;53.706;10.384;2022-09-03T14:37:38;23.30;68.60
18934;DHT22;9599;53.706;10.384;2022-09-03T14:40:17;23.20;68.50
18934;DHT22;9599;53.706;10.384;2022-09-03T14:43:08;23.20;68.90
18934;DHT22;9599;53.706;10.384;2022-09-03T14:45:53;23.20;68.90
18934;DHT22;9599;53.706;10.384;2022-09-03T14:48:45;23.10;69.50
18934;DHT22;9599;53.706;10.384;2022-09-03T14:51:22;23.10;70.00
18934;DHT22;9599;53.706;10.384;2022-09-03T15:00:01;22.80;68.50
18934;DHT22;9599;53.706;10.384;2022-09-03T15:02:52;22.70;69.30
18934;DHT22;9599;53.706;10.384;2022-09-03T15:05:37;22.70;70.00
18934;DHT22;9599;53.706;10.384;2022-09-03T15:08:16;22.80;70.80
18934;DHT22;9599;53.706;10.384;2022-09-03T15:10:51;23.00;68.70
18934;DHT22;9599;53.706;10.384;2022-09-03T15:13:27;23.00;70.30
18934;DHT22;9599;53.706;10.384;2022-09-03T15:16:10;23.20;68.90
18934;DHT22;9599;53.706;10.384;2022-09-03T15:18:55;23.30;68.00
18934;DHT22;9599;53.706;10.384;2022-09-03T15:21:38;23.30;69.00
18934;DHT22;9599;53.706;10.384;2022-09-03T15:24:14;23.30;69.80
18934;DHT22;9599;53.706;10.384;2022-09-03T15:26:55;23.30;69.70
18934;DHT22;9599;53.706;10.384;2022-09-03T15:29:47;23.20;70.20
18934;DHT22;9599;53.706;10.384;2022-09-03T15:32:35;23.00;70.80
18934;DHT22;9599;53.706;10.384;2022-09-03T15:35:08;22.80;71.10
18934;DHT22;9599;53.706;10.384;2022-09-03T15:37:41;22.60;72.30
18934;DHT22;9599;53.706;10.384;2022-09-03T15:40:24;22.50;72.30
18934;DHT22;9599;53.706;10.384;2022-09-03T15:42:58;22.40;72.70
18934;DHT22;9599;53.706;10.384;2022-09-03T15:45:34;22.30;73.60
18934;DHT22;9599;53.706;10.384;2022-09-03T15:48:25;22.30;72.80
18934;DHT22;9599;53.706;10.384;2022-09-03T15:51:02;22.20;73.90
18934;DHT22;9599;53.706;10.384;2022-09-03T15:53:40;22.10;73.90
18934;DHT22;9599;53.706;10.384;2022-09-03T15:56:19;22.00;73.50
18934;DHT22;9599;53.706;10.384;2022-09-03T15:58:55;22.10;73.50
18934;DHT22;9599;53.706;10.384;2022-09-03T16:01:42;22.10;73.10
18934;DHT22;9599;53.706;10.384;2022-09-03T16:04:24;22.20;74.80
18934;DHT22;9599;53.706;10.384;2022-09-03T16:06:58;22.20;74.00
18934;DHT22;9599;53.706;10.384;2022-09-03T16:09:42;22.10;73.90
18934;DHT22;9599;53.706;10.384;2022-09-03T16:12:35;22.10;75.10
18934;DHT22;9599;53.706;10.384;2022-09-03T16:15:09;22.10;74.20
18934;DHT22;9599;53.706;10.384;2022-09-03T16:17:50;22.00;74.60
18934;DHT22;9599;53.706;10.384;2022-09-03T16:20:24;22.00;74.80
18934;DHT22;9599;53.706;10.384;2022-09-03T16:22:58;21.90;75.30
18934;DHT22;9599;53.706;10.384;2022-09-03T16:25:30;21.80;75.60
18934;DHT22;9599;53.706;10.384;2022-09-03T16:28:05;21.90;75.60